Bluefield, WV

07:07 EDT le 24 mai 2015 (GMT -0400)
Mercer County | | Change Station
CLOSE
Current Station
Aéroport
Location: Bluefield,
Altitude: 2858 ft
Stations météo à proximité

Alt. 2858 ft 37.30 °N, 81.21 °W | Updated 15 minutes ago

Ciel dégagé
Ciel dégagé
62 ° F
Paraît 62 ° F
N
0
Vent Variable Vent de Nord

Aujourd'hui
Haut(e) -- | Bas -- ° F
--% Risque de précip.
Hier
Haut(e) -- | Bas -- ° F
Precip. -- pouce
6:09 AM 8:33 PM
Lune montante, 38% visible
Pression 30.32 pouce
Visibilité 10.0 Miles terrestres
Nuages Ciel dégagé
Point de rosée 41 ° F
Humidité 46%
Précipitations 0.00 pouce
Profondeur de la couche neigeuse Non disponible.
UV 0 sur 12
Pollen 7.80 sur 12
Qualité de l'air Non disponible.
Flu Activity Sporadic
METAR KBLF 241052Z AUTO 00000KT 10SM CLR 17/05 A3041 RMK AO2 SLP267 T01670050

More Conditions Fewer Conditions

Pression 30.32 pouce
Visibilité 10.0 Miles terrestres
Nuages Ciel dégagé
Point de rosée 41 ° F
Humidité 46%
Précipitations 0.00 pouce
Profondeur de la couche neigeuse Non disponible.
UV 0 sur 12
Pollen 7.80 sur 12
Qualité de l'air Non disponible.
Flu Activity Sporadic
METAR KBLF 241052Z AUTO 00000KT 10SM CLR 17/05 A3041 RMK AO2 SLP267 T01670050

More Conditions Fewer Conditions

10-Day Weather Forecast

Almanac

Astronomie

May. 24, 2015 Lever Coucher
Temps réel
Crépuscule civil
Crépuscule nautique
Crépuscule astronomique
Lune
Durée de lumière visible
Longueur du jour
Tomorrow will be .
, % of the Moon is Illuminated

Extrêmes aujourd'hui

State Highs State Lows

Community

WunderPhotos

Upload Photos

1,823,709 Photos téléchargées !

WunderBlogs® & News

Nearby

Qualité de l'air

  Qualité de l'air Indice de la qualité de l'air Polluant
Not available.

Épaisseur de neige

Station Depth Altitude

Activité sismique

Ville Distance Mag. Time & Date
Minimum magnitude displayed is 2.5.

Températures des eaux côtières

Lieu Température

Stations

Stations météo à proximité

Emplacement de la station Température Refroidissement éolien Point de rosée Humidité Vent Precip. Alt. Mise à jour Type